Airfield :
LOGIN :

Register | Disclaimer

   EN    FR    IT 

 










Legend :    VFR   Marginal VFR   IFR   Intensive IFR   Very Intensive IFR
Visi :
Ceiling :
>= 8 km
>= 3000ft
5 to 8 km
1000 to 3000 ft
1500m to 5 km
500 to 1000 ft
800 to 1500m
200 to 500 ft
< 800m
< 200 ft
Symbols :   Thunderstorms  Fog  Heavy snow  Heavy precipitations  Wind > 20 kt
SIGMETs :     Misc.  Thunderstorms  Icing  Turbulence  Mountain Waves  Volcanic Ashes






- Airport Elevation : 622 ft
- IATA code : BRS


EGGD - Bristol Int.

CURRENT METAR :
  • 222120Z AUTO 26011KT 9999 NCD 01/01 Q0994

EXPIRED METARs :
  • 222050Z AUTO 27010KT 9999 SCT008 01/01 Q0994
  • 222020Z AUTO 27013KT 9999 BKN007 BKN012 02/01 Q0994
  • 221950Z AUTO 28012KT 9999 BKN005 BKN013 02/02 Q0993
  • 221920Z AUTO 27012KT 9999 SCT006 BKN010 OVC030 03/03 Q0993
  • 221850Z AUTO 24007KT 9999 BKN001 OVC023 03/03 Q0993

TAF AMD TAF EGGD
Valid from the 22 at 20:00 until the 23 at 18:00 UTC


222008Z 2220/2318 24005KT 9999 SCT020
TEMPO 2220/2221 6000 SHRA BKN003
PROB30 2300/2310 2000 BR BKN003
BECMG 2309/2312 30010KT
ATIS : +44 1275 473 666



MET'MAP, your aeronautical weather chart ! - Copyright ORBIFLY December 2007 - Disclaimer

ORBIFLY MET'MAP TEAM :

Programming & Development : Alexandra Zaïnal
Concept & original design : Baudouin d'Aumeries
Assistance for programming : Marc-Olivier Méhu
Technical & hardware support : Manuel Goepfert

Contact : metmap@orbifly.com




SOURCES & CREDITS :

   NOAA